Time;durP1;ratioP1;P1;durP2;ratioP2;P2;SDS_P1;SDS_P2;PMS_P1;PMS_P2;Temp;Humidity;BMP_temperature;BMP_pressure;BME280_temperature;BME280_humidity;BME280_pressure;Samples;Min_cycle;Max_cycle;Signal;HPM_P1;HPM_P2
2021/07/08 04:02:37;;;;;;;4.10;3.80;;;14.30;96.30;;;;;;4974191;28;20911;-78
2021/07/08 04:05:04;;;;;;;4.07;3.73;;;14.40;96.30;;;;;;4975018;28;20504;-78
2021/07/08 04:07:29;;;;;;;4.50;4.10;;;14.50;96.30;;;;;;4975606;28;20240;-79
2021/07/08 04:09:54;;;;;;;5.27;3.60;;;14.50;96.30;;;;;;4975791;28;20441;-79
2021/07/08 04:12:20;;;;;;;4.60;3.50;;;14.40;96.30;;;;;;4970483;28;20203;-79
2021/07/08 04:14:45;;;;;;;4.30;4.00;;;14.40;96.30;;;;;;4958264;28;20249;-81
2021/07/08 04:17:11;;;;;;;5.50;4.47;;;14.30;96.30;;;;;;4960288;28;20701;-78
2021/07/08 04:19:36;;;;;;;5.37;3.80;;;14.30;96.30;;;;;;4975721;28;20189;-78
2021/07/08 04:22:02;;;;;;;4.00;3.70;;;14.30;96.30;;;;;;4975302;28;20206;-79
2021/07/08 04:24:28;;;;;;;7.03;3.77;;;14.40;96.30;;;;;;4975147;28;20553;-79
2021/07/08 04:26:53;;;;;;;3.50;3.20;;;14.40;96.30;;;;;;4974848;28;20205;-79
2021/07/08 04:29:18;;;;;;;4.90;2.90;;;14.40;96.30;;;;;;4974475;28;20170;-79
2021/07/08 04:31:44;;;;;;;7.23;3.70;;;14.40;96.30;;;;;;4972217;28;20198;-79
2021/07/08 04:34:09;;;;;;;5.60;3.53;;;14.40;96.30;;;;;;4955205;28;20178;-79
2021/07/08 04:36:35;;;;;;;6.67;3.90;;;14.40;96.30;;;;;;4956221;29;20183;-78
2021/07/08 04:39:02;;;;;;;8.03;4.23;;;14.40;96.30;;;;;;4956572;28;20238;-78
2021/07/08 04:41:28;;;;;;;7.13;4.93;;;14.40;96.30;;;;;;4954052;28;20222;-78
2021/07/08 04:43:53;;;;;;;7.23;5.20;;;14.40;96.30;;;;;;4956078;29;20422;-78
2021/07/08 04:46:19;;;;;;;13.40;7.47;;;14.40;96.30;;;;;;4955010;29;20265;-78
2021/07/08 04:48:44;;;;;;;6.50;5.80;;;14.40;96.30;;;;;;4955368;28;20175;-78
2021/07/08 04:51:11;;;;;;;5.83;4.30;;;14.40;96.30;;;;;;4955747;29;20183;-78
2021/07/08 04:53:37;;;;;;;5.80;3.60;;;14.40;96.30;;;;;;4956049;28;20683;-78
2021/07/08 04:56:02;;;;;;;6.57;4.17;;;14.50;96.30;;;;;;4954525;29;20521;-78
2021/07/08 04:58:28;;;;;;;6.57;4.30;;;14.50;96.30;;;;;;4955305;29;20254;-78
2021/07/08 05:00:53;;;;;;;8.13;4.10;;;14.60;96.30;;;;;;4955430;28;20593;-78
2021/07/08 05:03:19;;;;;;;9.70;4.23;;;14.70;96.30;;;;;;4970706;28;20205;-78
2021/07/08 05:05:47;;;;;;;4.50;4.17;;;14.70;96.30;;;;;;4955800;29;20643;-78
2021/07/08 05:08:12;;;;;;;5.30;3.67;;;14.80;96.30;;;;;;4969854;28;20215;-78
2021/07/08 05:10:37;;;;;;;4.53;4.10;;;14.80;96.30;;;;;;4955578;29;20438;-78
2021/07/08 05:13:03;;;;;;;5.80;3.27;;;15.00;96.30;;;;;;4955421;29;20179;-78
2021/07/08 05:15:28;;;;;;;8.80;3.70;;;15.00;96.30;;;;;;4970244;28;20636;-77
2021/07/08 05:17:54;;;;;;;5.20;3.10;;;15.10;96.30;;;;;;4954846;29;20183;-77
2021/07/08 05:20:19;;;;;;;5.93;2.80;;;15.10;96.30;;;;;;4954109;29;20234;-77
2021/07/08 05:22:47;;;;;;;4.83;2.80;;;15.10;96.30;;;;;;4954904;29;20175;-77
2021/07/08 05:25:14;;;;;;;2.80;2.60;;;15.10;96.30;;;;;;4954833;28;20179;-77
2021/07/08 05:27:40;;;;;;;3.60;3.27;;;15.10;96.30;;;;;;4954022;28;20564;-77
2021/07/08 05:30:08;;;;;;;10.33;3.00;;;15.10;96.30;;;;;;4953660;29;20450;-77
2021/07/08 05:32:34;;;;;;;4.23;2.63;;;15.20;96.30;;;;;;4972758;28;20170;-78
2021/07/08 05:34:59;;;;;;;3.37;3.07;;;15.10;96.30;;;;;;4974504;28;20445;-78
2021/07/08 05:37:25;;;;;;;3.73;2.80;;;15.10;96.30;;;;;;4974275;28;20475;-78
2021/07/08 05:39:50;;;;;;;3.20;2.90;;;15.20;96.30;;;;;;4975062;28;20239;-78
2021/07/08 05:42:16;;;;;;;2.57;2.40;;;15.30;96.30;;;;;;4975194;28;20789;-78
2021/07/08 05:44:42;;;;;;;4.50;2.80;;;15.40;96.30;;;;;;4974232;28;20189;-77
2021/07/08 05:47:07;;;;;;;2.80;2.60;;;15.40;96.30;;;;;;4973534;28;20210;-77
2021/07/08 05:49:33;;;;;;;4.37;2.70;;;15.50;96.30;;;;;;4973893;28;20650;-76
2021/07/08 05:51:58;;;;;;;3.30;2.50;;;15.50;96.30;;;;;;4974055;28;20191;-76
2021/07/08 05:54:24;;;;;;;3.23;2.53;;;15.40;96.30;;;;;;4974121;28;20262;-76
2021/07/08 05:56:49;;;;;;;3.27;2.93;;;15.40;96.30;;;;;;4973573;28;20638;-77
2021/07/08 05:59:15;;;;;;;8.27;2.87;;;15.50;96.30;;;;;;4975606;28;20178;-77
2021/07/08 06:01:40;;;;;;;3.87;2.80;;;15.60;96.30;;;;;;4975343;28;20218;-77
2021/07/08 06:04:06;;;;;;;4.63;3.33;;;15.70;96.30;;;;;;4974241;28;20265;-77
2021/07/08 06:06:31;;;;;;;3.60;2.73;;;15.90;96.30;;;;;;4974078;28;20206;-78
2021/07/08 06:08:57;;;;;;;3.50;3.20;;;16.00;96.30;;;;;;4973194;28;20260;-78
2021/07/08 06:11:22;;;;;;;4.97;3.30;;;16.10;96.30;;;;;;4973607;28;20190;-77
2021/07/08 06:13:48;;;;;;;7.47;2.73;;;16.30;96.30;;;;;;4973702;28;20179;-78
2021/07/08 06:16:13;;;;;;;3.23;2.43;;;16.50;96.30;;;;;;4973608;28;20178;-78
2021/07/08 06:18:39;;;;;;;7.97;2.73;;;16.60;96.30;;;;;;4972449;28;20217;-78
2021/07/08 06:21:05;;;;;;;2.70;2.50;;;16.60;96.30;;;;;;4972263;28;20209;-78
2021/07/08 06:23:31;;;;;;;3.50;2.80;;;16.80;96.30;;;;;;4972386;28;20177;-78
2021/07/08 06:25:57;;;;;;;2.73;2.53;;;16.90;96.30;;;;;;4973547;28;20855;-78
2021/07/08 06:28:23;;;;;;;3.33;2.37;;;17.00;96.30;;;;;;4969665;28;20298;-77
2021/07/08 06:30:48;;;;;;;8.90;2.50;;;16.80;96.30;;;;;;4954028;28;20525;-77
2021/07/08 06:33:13;;;;;;;3.43;2.40;;;16.70;96.30;;;;;;4967084;28;20193;-77
2021/07/08 06:35:40;;;;;;;5.03;3.37;;;16.70;96.30;;;;;;4962141;28;20175;-77
2021/07/08 06:38:06;;;;;;;3.27;2.63;;;16.80;96.30;;;;;;4953369;28;20658;-77
2021/07/08 06:40:31;;;;;;;4.70;2.80;;;17.00;96.30;;;;;;4969717;28;20445;-77
2021/07/08 06:42:58;;;;;;;3.90;2.80;;;17.10;96.30;;;;;;4973171;28;20178;-77
2021/07/08 06:45:24;;;;;;;8.40;2.80;;;17.10;96.30;;;;;;4973896;28;20170;-77
2021/07/08 06:47:54;;;;;;;3.60;2.93;;;17.10;96.30;;;;;;4972836;28;20508;-77
2021/07/08 06:50:20;;;;;;;2.97;2.60;;;17.10;96.30;;;;;;4972366;28;20166;-77
2021/07/08 06:52:46;;;;;;;7.67;2.80;;;17.00;96.30;;;;;;4973400;28;20437;-77
2021/07/08 06:55:12;;;;;;;8.97;2.83;;;17.00;96.30;;;;;;4973701;28;20434;-77
2021/07/08 06:57:50;;;;;;;4.33;2.87;;;17.10;96.30;;;;;;4973170;28;20457;-77
2021/07/08 07:00:18;;;;;;;7.53;2.30;;;17.20;96.30;;;;;;4973550;28;20393;-77
2021/07/08 07:02:43;;;;;;;4.23;2.23;;;17.20;96.30;;;;;;4990901;28;20449;-76
2021/07/08 07:05:09;;;;;;;5.83;2.77;;;17.00;96.30;;;;;;4992662;28;20447;-76
2021/07/08 07:07:34;;;;;;;8.13;3.00;;;17.00;96.30;;;;;;4992045;28;20677;-77
2021/07/08 07:10:00;;;;;;;2.77;2.57;;;17.10;96.30;;;;;;4990716;28;20185;-76
2021/07/08 07:12:25;;;;;;;3.83;2.53;;;17.20;96.30;;;;;;4992300;28;20194;-77
2021/07/08 07:14:51;;;;;;;2.13;2.03;;;17.40;96.30;;;;;;4992402;28;20257;-77
2021/07/08 07:17:16;;;;;;;5.53;2.67;;;17.50;96.30;;;;;;4991847;28;20177;-77
2021/07/08 07:19:42;;;;;;;3.10;2.00;;;17.60;96.30;;;;;;4992340;28;20216;-77
2021/07/08 07:22:08;;;;;;;6.37;2.60;;;17.70;96.30;;;;;;4990819;28;20202;-77
2021/07/08 07:24:33;;;;;;;5.03;2.57;;;17.80;96.30;;;;;;4992319;28;20183;-77
2021/07/08 07:26:58;;;;;;;4.07;2.43;;;17.90;96.30;;;;;;4991376;28;20201;-77
2021/07/08 07:29:24;;;;;;;2.50;2.00;;;17.90;96.30;;;;;;4992432;28;20244;-77
2021/07/08 07:31:49;;;;;;;3.30;2.40;;;18.00;96.30;;;;;;4995832;28;20197;-76
2021/07/08 07:34:15;;;;;;;5.83;2.00;;;18.10;96.30;;;;;;4995906;28;20181;-77
2021/07/08 07:36:41;;;;;;;2.60;2.10;;;18.10;96.30;;;;;;4995840;28;20174;-76
2021/07/08 07:39:06;;;;;;;3.70;2.40;;;18.00;96.30;;;;;;4995201;28;20178;-77
2021/07/08 07:41:34;;;;;;;4.40;2.20;;;18.00;96.30;;;;;;4993988;28;20237;-77
2021/07/08 07:44:00;;;;;;;3.03;2.10;;;18.00;96.30;;;;;;4995835;28;20240;-77
2021/07/08 07:46:25;;;;;;;3.67;1.97;;;17.90;96.30;;;;;;4994454;28;20916;-77
2021/07/08 07:48:51;;;;;;;13.10;2.33;;;17.90;96.30;;;;;;4995019;28;20261;-77
2021/07/08 07:51:16;;;;;;;7.97;2.80;;;17.80;96.30;;;;;;4995581;28;20219;-77
2021/07/08 07:53:42;;;;;;;11.17;2.53;;;17.70;96.30;;;;;;4995363;28;20637;-77
2021/07/08 07:56:07;;;;;;;6.70;2.73;;;17.60;96.30;;;;;;4978673;28;20182;-76
2021/07/08 07:58:33;;;;;;;3.43;2.00;;;17.50;96.30;;;;;;4975699;28;20265;-76
2021/07/08 08:01:00;;;;;;;2.73;1.83;;;17.60;96.30;;;;;;4976220;28;20690;-76
2021/07/08 08:03:25;;;;;;;3.97;2.27;;;17.50;96.30;;;;;;4976848;28;20709;-77
2021/07/08 08:08:27;;;;;;;3.67;2.43;;;17.50;96.30;;;;;;4975838;28;20421;-77
2021/07/08 08:08:42;;;;;;;7.10;2.67;;;17.60;96.30;;;;;;4976250;28;20183;-79
2021/07/08 08:11:09;;;;;;;2.67;2.40;;;17.70;96.30;;;;;;4958486;28;20448;-78
2021/07/08 08:13:36;;;;;;;8.47;3.20;;;17.80;96.30;;;;;;4975684;28;20175;-78
2021/07/08 08:16:02;;;;;;;4.30;2.07;;;17.90;96.30;;;;;;4975437;28;20398;-77
2021/07/08 08:18:28;;;;;;;5.63;2.93;;;17.80;96.30;;;;;;4975129;28;20402;-78
2021/07/08 08:20:54;;;;;;;3.37;3.07;;;17.90;96.30;;;;;;4975585;28;20504;-78
2021/07/08 08:23:20;;;;;;;3.10;2.80;;;17.90;96.30;;;;;;4975512;28;20167;-78
2021/07/08 08:25:45;;;;;;;3.10;2.60;;;17.90;96.30;;;;;;4958234;28;20414;-78
2021/07/08 08:28:11;;;;;;;4.07;2.93;;;17.90;96.30;;;;;;4974957;28;20206;-78
2021/07/08 08:30:37;;;;;;;4.23;2.50;;;18.00;96.30;;;;;;4975345;28;20666;-78
2021/07/08 08:33:03;;;;;;;2.90;2.20;;;18.00;96.30;;;;;;4959880;28;20535;-78
2021/07/08 08:35:29;;;;;;;5.33;2.80;;;18.00;96.30;;;;;;4984839;28;20441;-78
2021/07/08 08:37:55;;;;;;;3.10;2.90;;;18.00;96.30;;;;;;4983643;28;20999;-78
2021/07/08 08:40:22;;;;;;;4.90;2.90;;;18.10;96.30;;;;;;4965858;28;20170;-78
2021/07/08 08:42:48;;;;;;;6.77;3.40;;;17.90;96.30;;;;;;4976585;28;20186;-78
2021/07/08 08:45:18;;;;;;;7.10;3.37;;;17.90;96.30;;;;;;4987880;28;20414;-79
2021/07/08 08:48:01;;;;;;;3.90;3.60;;;18.00;96.30;;;;;;4974509;28;20504;-78
2021/07/08 08:50:32;;;;;;;6.00;3.70;;;18.00;96.30;;;;;;4975044;28;20394;-78
2021/07/08 08:52:58;;;;;;;5.63;3.80;;;18.30;96.30;;;;;;4975105;28;20398;-78
2021/07/08 08:55:24;;;;;;;6.43;2.60;;;18.70;96.30;;;;;;4974871;28;20409;-78
2021/07/08 08:57:49;;;;;;;3.50;3.30;;;18.90;96.30;;;;;;4974335;28;20429;-78
2021/07/08 09:00:24;;;;;;;8.73;3.07;;;19.30;96.30;;;;;;4974711;28;20179;-78
2021/07/08 09:03:04;;;;;;;10.80;3.33;;;19.60;96.30;;;;;;4974593;28;20181;-78
2021/07/08 09:05:30;;;;;;;4.53;3.40;;;20.40;96.30;;;;;;4957521;28;20476;-78
2021/07/08 09:08:17;;;;;;;4.07;3.53;;;20.80;96.30;;;;;;4960236;28;20545;-77
2021/07/08 09:10:45;;;;;;;11.10;3.20;;;21.20;96.30;;;;;;4974471;28;20429;-78
2021/07/08 09:13:11;;;;;;;2.90;2.70;;;22.00;96.30;;;;;;4974610;28;20421;-78
2021/07/08 09:15:37;;;;;;;2.80;2.60;;;22.20;96.30;;;;;;4993981;28;20416;-77
2021/07/08 09:18:03;;;;;;;3.13;1.73;;;22.40;96.30;;;;;;4993431;28;20204;-77
2021/07/08 09:20:28;;;;;;;5.00;2.10;;;23.10;96.30;;;;;;4993684;28;20212;-77
2021/07/08 09:23:14;;;;;;;2.07;1.93;;;23.90;96.30;;;;;;4991006;28;20598;-77
2021/07/08 09:25:41;;;;;;;3.67;2.03;;;24.10;96.30;;;;;;4994001;28;20194;-77
2021/07/08 09:28:13;;;;;;;4.30;2.07;;;24.30;96.30;;;;;;4993330;28;20459;-77
2021/07/08 09:30:39;;;;;;;2.70;1.83;;;24.40;96.30;;;;;;4993603;28;20940;-77
2021/07/08 09:33:35;;;;;;;4.83;1.90;;;23.70;96.30;;;;;;4993615;28;20401;-77
2021/07/08 09:36:10;;;;;;;2.67;1.90;;;23.20;96.30;;;;;;4992873;28;20389;-77
2021/07/08 09:38:37;;;;;;;3.23;2.07;;;22.60;96.30;;;;;;4993069;28;20408;-78
2021/07/08 09:41:28;;;;;;;1.97;1.87;;;22.30;96.30;;;;;;4993618;28;20436;-77
2021/07/08 09:43:53;;;;;;;5.03;2.20;;;21.80;96.30;;;;;;4984501;28;21128;-77
2021/07/08 09:46:35;;;;;;;2.80;2.60;;;21.60;96.30;;;;;;4973890;28;20444;-77
2021/07/08 09:49:06;;;;;;;4.03;2.80;;;21.30;96.30;;;;;;4973536;28;20160;-77
2021/07/08 09:51:32;;;;;;;5.30;2.87;;;21.10;96.30;;;;;;4973919;28;20465;-77
2021/07/08 09:54:06;;;;;;;2.53;2.33;;;21.00;96.30;;;;;;4974948;28;20441;-79
2021/07/08 09:56:45;;;;;;;3.37;2.83;;;20.70;96.30;;;;;;4975286;28;20485;-78
2021/07/08 09:59:12;;;;;;;3.37;2.33;;;20.80;96.30;;;;;;4974641;28;20401;-78
2021/07/08 10:01:38;;;;;;;4.77;2.13;;;20.70;96.30;;;;;;4974837;28;20441;-78
2021/07/08 10:04:04;;;;;;;3.90;2.37;;;20.60;96.30;;;;;;4975395;28;20421;-78
2021/07/08 10:06:32;;;;;;;4.70;2.60;;;20.60;96.30;;;;;;4975890;28;20175;-78
2021/07/08 10:08:58;;;;;;;1.90;1.80;;;20.60;96.30;;;;;;4973131;28;20260;-78
2021/07/08 10:11:24;;;;;;;5.67;2.20;;;20.40;96.30;;;;;;4977847;28;20433;-78
2021/07/08 10:13:50;;;;;;;3.00;1.93;;;20.30;96.30;;;;;;5007472;23;20475;-75
2021/07/08 10:16:19;;;;;;;8.37;2.23;;;20.30;96.30;;;;;;5028237;28;20555;-75
2021/07/08 10:18:47;;;;;;;6.13;1.90;;;20.30;96.30;;;;;;5012006;28;20400;-75
2021/07/08 10:21:16;;;;;;;7.37;2.00;;;20.30;96.30;;;;;;5012589;28;20467;-75
2021/07/08 10:23:41;;;;;;;2.37;2.10;;;20.60;96.30;;;;;;5009448;28;20474;-75
2021/07/08 10:26:09;;;;;;;1.90;1.70;;;20.70;96.30;;;;;;4992965;28;20475;-75
2021/07/08 10:28:39;;;;;;;3.60;1.90;;;20.80;96.30;;;;;;4992230;28;20193;-75
2021/07/08 10:31:05;;;;;;;2.30;2.10;;;20.70;96.30;;;;;;4992822;28;20477;-75
2021/07/08 10:33:31;;;;;;;3.10;2.80;;;20.70;96.30;;;;;;4992629;28;20404;-75
2021/07/08 10:35:56;;;;;;;3.27;2.67;;;20.60;96.30;;;;;;4992772;28;20420;-76
2021/07/08 10:38:39;;;;;;;2.83;2.50;;;20.60;96.30;;;;;;4992263;28;20185;-76
2021/07/08 10:41:07;;;;;;;2.50;2.30;;;20.70;96.30;;;;;;4992288;28;20568;-75
2021/07/08 10:43:35;;;;;;;6.30;2.70;;;21.10;96.30;;;;;;4992259;28;20819;-75
2021/07/08 10:46:11;;;;;;;3.33;2.40;;;21.30;96.30;;;;;;4992470;28;20924;-76
2021/07/08 10:48:41;;;;;;;5.40;2.80;;;21.60;96.30;;;;;;4992292;28;20488;-75
2021/07/08 10:51:08;;;;;;;5.17;3.17;;;22.00;96.30;;;;;;4992606;28;20409;-75
2021/07/08 10:53:40;;;;;;;4.00;3.20;;;22.00;96.30;;;;;;4992508;28;20425;-75
2021/07/08 10:56:08;;;;;;;4.53;2.97;;;22.20;96.30;;;;;;4991409;28;20413;-75
2021/07/08 10:58:42;;;;;;;7.70;2.87;;;22.00;96.30;;;;;;4992139;28;20425;-75
2021/07/08 11:01:37;;;;;;;3.30;2.60;;;21.80;96.30;;;;;;4991265;28;20421;-75
2021/07/08 11:04:03;;;;;;;7.73;3.27;;;21.90;96.30;;;;;;4987905;28;20455;-75
2021/07/08 11:06:34;;;;;;;6.57;2.80;;;22.10;96.30;;;;;;4996004;28;20790;-77
2021/07/08 11:09:21;;;;;;;4.43;2.80;;;21.80;96.30;;;;;;4996038;28;20499;-75
2021/07/08 11:11:46;;;;;;;9.80;2.40;;;21.60;96.30;;;;;;4996340;28;20920;-75
2021/07/08 11:14:14;;;;;;;2.90;2.53;;;21.80;96.30;;;;;;4994665;28;20480;-75
2021/07/08 11:16:58;;;;;;;4.80;2.70;;;22.20;96.30;;;;;;4996200;28;20224;-76
2021/07/08 11:19:24;;;;;;;7.90;3.27;;;22.10;96.30;;;;;;4995299;28;20420;-77
2021/07/08 11:21:50;;;;;;;8.63;2.83;;;21.90;96.30;;;;;;4996437;28;20835;-75
2021/07/08 11:24:20;;;;;;;4.33;2.07;;;21.70;96.30;;;;;;4996752;28;20764;-75
2021/07/08 11:27:02;;;;;;;4.40;1.77;;;21.50;96.30;;;;;;4996049;28;20959;-80
2021/07/08 11:29:43;;;;;;;1.70;1.23;;;21.40;96.30;;;;;;4996161;28;20404;-77
2021/07/08 11:32:46;;;;;;;4.53;2.07;;;21.30;96.30;;;;;;4996201;28;20388;-75
2021/07/08 11:35:38;;;;;;;4.00;1.90;;;21.60;96.30;;;;;;4996226;28;20805;-78
2021/07/08 11:38:14;;;;;;;4.60;2.30;;;21.60;96.30;;;;;;4995668;28;20388;-75
2021/07/08 11:40:42;;;;;;;3.97;1.90;;;21.60;96.30;;;;;;4996129;28;20397;-75
2021/07/08 11:43:33;;;;;;;7.70;2.27;;;21.70;96.30;;;;;;4995890;28;20423;-75
2021/07/08 11:46:08;;;;;;;2.60;2.13;;;21.70;96.30;;;;;;4990528;28;20980;-77
2021/07/08 11:48:39;;;;;;;3.33;2.10;;;21.90;96.30;;;;;;4995386;28;20436;-75
2021/07/08 11:51:16;;;;;;;13.37;2.77;;;22.00;96.30;;;;;;4995737;28;20928;-75
2021/07/08 11:53:43;;;;;;;9.83;2.80;;;22.00;96.30;;;;;;4994390;28;20536;-75
2021/07/08 11:56:09;;;;;;;2.33;2.13;;;22.20;96.30;;;;;;4995682;28;20467;-78
2021/07/08 11:58:35;;;;;;;8.87;2.37;;;22.50;96.30;;;;;;4995127;28;20416;-75
2021/07/08 12:01:05;;;;;;;9.97;2.60;;;22.80;96.30;;;;;;4994382;28;20186;-75
2021/07/08 12:03:44;;;;;;;6.80;2.60;;;22.80;96.30;;;;;;4995512;28;20504;-76
2021/07/08 12:06:12;;;;;;;3.40;1.93;;;22.80;96.30;;;;;;4994568;28;20954;-76
2021/07/08 12:09:00;;;;;;;2.30;2.10;;;22.80;96.30;;;;;;4994138;28;20468;-78
2021/07/08 12:11:31;;;;;;;7.40;2.17;;;22.80;96.30;;;;;;4995482;28;20429;-76
2021/07/08 12:14:08;;;;;;;5.77;2.80;;;22.50;96.30;;;;;;4995568;28;20521;-75
2021/07/08 12:16:36;;;;;;;5.60;2.23;;;21.90;96.30;;;;;;4994389;28;20416;-76
2021/07/08 12:19:23;;;;;;;8.17;2.43;;;21.70;96.30;;;;;;4995734;28;20951;-75
2021/07/08 12:21:51;;;;;;;2.93;2.20;;;21.70;96.30;;;;;;4995191;28;20429;-76
2021/07/08 12:24:39;;;;;;;4.17;2.50;;;21.50;96.30;;;;;;4996247;28;20801;-76
2021/07/08 12:27:07;;;;;;;7.33;3.17;;;21.20;96.30;;;;;;4997015;28;20452;-76
2021/07/08 12:29:38;;;;;;;6.60;3.23;;;20.90;96.30;;;;;;4995330;28;20500;-76
2021/07/08 12:32:08;;;;;;;4.30;2.47;;;20.60;96.30;;;;;;4995156;28;20412;-75
2021/07/08 12:34:49;;;;;;;5.37;2.73;;;20.50;96.30;;;;;;4995294;28;20490;-75
2021/07/08 12:37:20;;;;;;;7.30;2.47;;;20.50;96.30;;;;;;5012857;28;20912;-77
2021/07/08 12:40:04;;;;;;;7.90;2.40;;;20.30;96.30;;;;;;5014423;28;20400;-75
2021/07/08 12:42:58;;;;;;;2.80;2.10;;;20.00;96.30;;;;;;5014984;28;20404;-75
2021/07/08 12:45:24;;;;;;;3.07;2.70;;;19.60;96.30;;;;;;5012135;28;20501;-75
2021/07/08 12:47:55;;;;;;;5.40;2.50;;;19.40;96.30;;;;;;5013997;28;20455;-75
2021/07/08 12:50:24;;;;;;;3.80;2.10;;;19.00;96.30;;;;;;5014248;28;20613;-77
2021/07/08 12:52:50;;;;;;;4.20;2.07;;;18.70;96.30;;;;;;5014160;28;20455;-75
2021/07/08 12:55:41;;;;;;;6.50;1.97;;;18.60;96.30;;;;;;5013946;28;20467;-75
2021/07/08 12:58:13;;;;;;;5.90;1.97;;;18.40;96.30;;;;;;5013663;28;20200;-74
2021/07/08 13:00:39;;;;;;;7.83;2.37;;;18.30;96.30;;;;;;5013814;28;20493;-74
2021/07/08 13:03:05;;;;;;;6.73;2.10;;;18.40;96.30;;;;;;5019179;28;20403;-74
2021/07/08 13:05:35;;;;;;;4.10;2.67;;;18.40;96.30;;;;;;5014324;28;20451;-75
2021/07/08 13:08:05;;;;;;;2.97;1.97;;;18.50;96.30;;;;;;5023749;28;20459;-74
2021/07/08 13:10:38;;;;;;;3.77;2.20;;;18.60;96.30;;;;;;5013890;28;20503;-75
2021/07/08 13:13:04;;;;;;;4.63;2.27;;;18.60;96.30;;;;;;5011999;28;20931;-75
2021/07/08 13:15:32;;;;;;;5.90;2.43;;;18.60;96.30;;;;;;5013590;28;20454;-75
2021/07/08 13:18:17;;;;;;;7.00;2.47;;;18.50;96.30;;;;;;5013126;28;20181;-75
2021/07/08 13:20:50;;;;;;;7.03;2.50;;;18.40;96.30;;;;;;5012397;28;20495;-75
2021/07/08 13:23:17;;;;;;;9.80;2.47;;;18.20;96.30;;;;;;5013640;28;20475;-75
2021/07/08 13:25:47;;;;;;;10.90;3.33;;;18.20;96.30;;;;;;5013443;28;20481;-75
2021/07/08 13:28:19;;;;;;;6.60;2.47;;;18.00;96.30;;;;;;5012784;28;20448;-76
2021/07/08 13:30:57;;;;;;;3.13;2.90;;;18.00;96.30;;;;;;5013498;28;20392;-75
2021/07/08 13:33:43;;;;;;;6.13;2.90;;;18.00;96.30;;;;;;5013610;28;20869;-76
2021/07/08 13:36:11;;;;;;;4.77;2.40;;;18.00;96.30;;;;;;5013839;28;20477;-77
2021/07/08 13:38:37;;;;;;;2.40;1.73;;;17.90;96.30;;;;;;5013795;28;20465;-76
2021/07/08 13:41:16;;;;;;;5.00;1.80;;;17.90;96.30;;;;;;5013740;28;20502;-75
2021/07/08 13:43:56;;;;;;;1.50;1.40;;;18.10;96.30;;;;;;5013260;28;20876;-75
2021/07/08 13:46:27;;;;;;;4.50;1.53;;;18.20;96.30;;;;;;4993658;28;20400;-75
2021/07/08 13:49:03;;;;;;;4.60;1.20;;;18.10;96.30;;;;;;5000750;28;20905;-76
2021/07/08 13:51:29;;;;;;;1.47;1.37;;;18.20;96.30;;;;;;5013049;28;20730;-76
2021/07/08 13:53:54;;;;;;;4.63;1.60;;;18.20;96.30;;;;;;5012943;28;20878;-75
2021/07/08 13:56:20;;;;;;;3.33;1.50;;;18.40;96.30;;;;;;4995326;28;20227;-75
2021/07/08 13:58:47;;;;;;;2.83;1.57;;;18.60;96.30;;;;;;5012631;28;20180;-76
2021/07/08 14:01:14;;;;;;;7.50;1.53;;;18.90;96.30;;;;;;4995371;28;20271;-75
2021/07/08 14:03:39;;;;;;;4.10;1.40;;;19.00;96.30;;;;;;5012795;28;20412;-76
2021/07/08 14:06:05;;;;;;;4.17;1.60;;;19.10;96.30;;;;;;5013063;28;20840;-75
2021/07/08 14:08:36;;;;;;;2.33;1.80;;;19.20;96.30;;;;;;5012646;28;20660;-76
2021/07/08 14:11:03;;;;;;;4.40;1.50;;;19.30;96.30;;;;;;5012889;28;20149;-77
2021/07/08 14:13:28;;;;;;;4.97;1.50;;;19.30;96.30;;;;;;5012868;28;20404;-76
2021/07/08 14:15:54;;;;;;;2.23;1.50;;;19.00;96.30;;;;;;4995392;28;20482;-77
2021/07/08 14:18:19;;;;;;;2.00;1.90;;;18.80;96.30;;;;;;5013119;28;20192;-76
2021/07/08 14:20:45;;;;;;;3.53;1.27;;;19.00;96.30;;;;;;5012868;28;20183;-76
2021/07/08 14:23:10;;;;;;;3.53;1.87;;;19.00;96.30;;;;;;5012966;28;20231;-76
2021/07/08 14:25:36;;;;;;;4.77;1.30;;;19.10;96.30;;;;;;5012130;28;20197;-77
2021/07/08 14:28:06;;;;;;;5.43;1.90;;;19.20;96.30;;;;;;5012400;28;20250;-77
2021/07/08 14:30:33;;;;;;;4.77;2.07;;;19.10;96.30;;;;;;4995482;28;20528;-76
2021/07/08 14:32:59;;;;;;;2.93;2.20;;;19.00;96.30;;;;;;5012365;28;20473;-77
2021/07/08 14:35:24;;;;;;;5.10;1.70;;;18.90;96.30;;;;;;4994971;28;20929;-78
2021/07/08 14:37:51;;;;;;;2.03;1.83;;;18.70;96.30;;;;;;5006514;28;20176;-77
2021/07/08 14:40:17;;;;;;;2.23;2.03;;;18.50;96.30;;;;;;4999796;28;20165;-78
2021/07/08 14:42:57;;;;;;;3.80;2.10;;;18.40;96.30;;;;;;4999888;28;20432;-80
2021/07/08 14:45:23;;;;;;;5.43;1.93;;;18.30;96.30;;;;;;5001876;28;20515;-77
2021/07/08 14:47:52;;;;;;;4.83;2.60;;;18.10;96.30;;;;;;5010633;28;20614;-76
2021/07/08 14:50:18;;;;;;;6.83;2.70;;;18.10;96.30;;;;;;5024604;28;20699;-76
2021/07/08 14:52:44;;;;;;;6.73;2.37;;;17.90;96.30;;;;;;5001076;28;20425;-76
2021/07/08 14:55:10;;;;;;;12.20;3.20;;;17.70;96.30;;;;;;5000320;28;20201;-76
2021/07/08 14:57:35;;;;;;;2.63;2.10;;;17.60;96.30;;;;;;5019517;28;20478;-77
2021/07/08 15:00:01;;;;;;;2.33;2.00;;;17.40;96.30;;;;;;5012278;28;20165;-76
2021/07/08 15:02:27;;;;;;;3.33;2.33;;;17.30;96.30;;;;;;4994561;28;20626;-76
2021/07/08 15:04:52;;;;;;;10.67;2.43;;;17.20;96.30;;;;;;5011790;28;20204;-76
2021/07/08 15:07:18;;;;;;;10.73;3.27;;;17.30;96.30;;;;;;5008623;28;20240;-77
2021/07/08 15:09:43;;;;;;;3.93;3.63;;;17.50;96.30;;;;;;5000393;28;20649;-76
2021/07/08 15:12:09;;;;;;;3.93;3.53;;;17.90;96.30;;;;;;5008770;28;20173;-77
2021/07/08 15:14:35;;;;;;;6.60;3.90;;;18.10;96.30;;;;;;5011502;28;20303;-78
2021/07/08 15:17:01;;;;;;;5.83;4.20;;;18.30;96.30;;;;;;5010495;28;20503;-77
2021/07/08 15:19:27;;;;;;;7.13;3.90;;;18.40;96.30;;;;;;5011623;28;20524;-77
2021/07/08 15:21:53;;;;;;;7.23;4.20;;;18.60;96.30;;;;;;5011695;28;20444;-77
2021/07/08 15:24:18;;;;;;;4.20;3.77;;;18.60;96.30;;;;;;5011720;28;20451;-77
2021/07/08 15:26:44;;;;;;;7.73;3.77;;;18.50;96.30;;;;;;5011900;28;20181;-77
2021/07/08 15:29:09;;;;;;;4.57;3.63;;;18.40;96.30;;;;;;5011279;28;20530;-77
2021/07/08 15:31:36;;;;;;;5.90;4.30;;;18.40;96.30;;;;;;5011660;28;20197;-78
2021/07/08 15:34:08;;;;;;;6.50;4.70;;;18.40;96.30;;;;;;4985554;28;20198;-77
2021/07/08 15:36:35;;;;;;;7.20;5.07;;;18.50;96.30;;;;;;5010340;28;20404;-77
2021/07/08 15:39:06;;;;;;;7.70;4.60;;;18.50;96.30;;;;;;5011128;28;20408;-78
2021/07/08 15:41:32;;;;;;;5.73;5.23;;;18.30;96.30;;;;;;5002261;28;20424;-78
2021/07/08 15:43:58;;;;;;;6.10;5.30;;;18.30;96.30;;;;;;5007500;28;20822;-77
2021/07/08 15:46:24;;;;;;;5.67;5.13;;;18.20;96.30;;;;;;5009646;28;20419;-79
2021/07/08 15:48:50;;;;;;;6.17;5.67;;;18.20;96.30;;;;;;5008549;28;20196;-78
2021/07/08 15:51:17;;;;;;;6.53;5.93;;;18.20;96.30;;;;;;4988374;28;20516;-76
2021/07/08 15:53:43;;;;;;;6.67;6.10;;;18.20;96.30;;;;;;5016004;28;20300;-77
2021/07/08 15:56:09;;;;;;;7.87;7.10;;;18.20;96.30;;;;;;5016609;28;20451;-78
2021/07/08 15:58:39;;;;;;;7.20;6.60;;;18.10;96.30;;;;;;5015530;28;20404;-77
2021/07/08 16:01:04;;;;;;;7.20;6.70;;;18.00;96.30;;;;;;5015147;28;20412;-77
2021/07/08 16:03:33;;;;;;;7.73;7.00;;;17.90;96.30;;;;;;5015095;28;20419;-78
2021/07/08 16:06:04;;;;;;;8.17;7.47;;;17.90;96.30;;;;;;4978307;28;20200;-78
2021/07/08 16:08:30;;;;;;;8.70;7.90;;;17.80;96.30;;;;;;4995303;28;20441;-77
2021/07/08 16:10:56;;;;;;;8.97;8.20;;;17.80;96.30;;;;;;4995240;28;20955;-77
2021/07/08 16:13:21;;;;;;;8.73;7.93;;;17.80;96.30;;;;;;4995432;28;20444;-77
2021/07/08 16:15:47;;;;;;;8.00;7.40;;;17.80;96.30;;;;;;4993904;28;20214;-77
2021/07/08 16:18:13;;;;;;;7.77;6.97;;;17.80;96.30;;;;;;4994818;28;20185;-79
2021/07/08 16:20:39;;;;;;;10.50;7.03;;;17.70;96.30;;;;;;4995392;28;20185;-77
2021/07/08 16:23:04;;;;;;;19.50;8.60;;;17.70;96.30;;;;;;4995265;28;20421;-76
2021/07/08 16:25:30;;;;;;;8.33;7.60;;;17.60;96.30;;;;;;4995562;28;20197;-76
2021/07/08 16:27:55;;;;;;;7.77;7.07;;;17.50;96.30;;;;;;4990503;28;20213;-76
2021/07/08 16:30:22;;;;;;;9.30;6.73;;;17.40;96.30;;;;;;5001776;28;20268;-78
2021/07/08 16:32:48;;;;;;;8.13;7.30;;;17.50;96.30;;;;;;5014695;28;20221;-77
2021/07/08 16:35:15;;;;;;;7.60;7.00;;;17.50;96.30;;;;;;5015974;28;20462;-76
2021/07/08 16:37:42;;;;;;;7.30;6.60;;;17.40;96.30;;;;;;5015844;28;20408;-76
2021/07/08 16:40:11;;;;;;;7.43;6.77;;;17.30;96.30;;;;;;4997328;28;20239;-76
2021/07/08 16:42:37;;;;;;;11.10;6.60;;;17.20;96.30;;;;;;5014679;28;20904;-76
2021/07/08 16:45:05;;;;;;;13.90;8.47;;;17.20;96.30;;;;;;5014659;28;20429;-76
2021/07/08 16:47:30;;;;;;;10.87;8.10;;;17.20;96.30;;;;;;5014673;28;20200;-76
2021/07/08 16:49:56;;;;;;;8.40;7.70;;;17.20;96.30;;;;;;5014459;28;20761;-77
2021/07/08 16:52:21;;;;;;;9.37;8.40;;;17.20;96.30;;;;;;5014906;28;20645;-76
2021/07/08 16:54:47;;;;;;;16.30;8.97;;;17.20;96.30;;;;;;4998364;28;20197;-76